createdAt,value
2023-04-11T00:02:18.968Z,6.87
2023-04-11T00:07:23.645Z,6.50
2023-04-11T00:12:26.828Z,6.23
2023-04-11T00:17:31.430Z,6.40
2023-04-11T00:22:36.294Z,6.17
2023-04-11T00:27:39.620Z,6.30
2023-04-11T00:32:42.755Z,5.57
2023-04-11T00:37:49.487Z,6.20
2023-04-11T00:42:52.609Z,5.90
2023-04-11T00:47:55.921Z,5.97
2023-04-11T00:53:00.586Z,6.10
2023-04-11T00:58:04.282Z,5.97
2023-04-11T01:03:08.477Z,5.90
2023-04-11T01:08:14.892Z,5.30
2023-04-11T01:13:18.466Z,5.10
2023-04-11T01:18:21.599Z,5.30
2023-04-11T01:23:26.557Z,5.47
2023-04-11T01:28:29.686Z,5.60
2023-04-11T01:33:32.815Z,5.50
2023-04-11T01:38:37.368Z,5.50
2023-04-11T01:43:40.958Z,6.00
2023-04-11T01:48:45.613Z,5.40
2023-04-11T01:53:50.357Z,5.33
2023-04-11T01:58:53.688Z,4.50
2023-04-11T02:03:57.100Z,4.97
2023-04-11T02:09:01.721Z,5.17
2023-04-11T02:14:06.430Z,4.93
2023-04-11T02:19:09.553Z,5.60
2023-04-11T02:24:14.144Z,4.30
2023-04-11T02:29:17.233Z,4.40
2023-04-11T02:34:20.375Z,5.00
2023-04-11T02:39:24.947Z,4.37
2023-04-11T02:44:29.427Z,4.30
2023-04-11T02:49:32.607Z,5.17
2023-04-11T02:54:37.277Z,4.47
2023-04-11T02:59:40.385Z,3.93
2023-04-11T03:04:43.507Z,4.60
2023-04-11T03:09:48.095Z,4.60
2023-04-11T03:14:51.238Z,4.70
2023-04-11T03:19:54.381Z,4.77
2023-04-11T03:25:00.048Z,5.00
2023-04-11T03:30:03.769Z,5.10
2023-04-11T03:35:07.428Z,3.63
2023-04-11T03:40:12.755Z,4.20
2023-04-11T03:45:15.995Z,3.97
2023-04-11T03:50:19.251Z,3.97
2023-04-11T03:55:24.025Z,4.50
2023-04-11T04:00:27.784Z,4.60
2023-04-11T04:05:30.895Z,3.97
2023-04-11T04:10:35.569Z,4.00
2023-04-11T04:15:38.688Z,4.20
2023-04-11T04:20:43.033Z,3.73
2023-04-11T04:25:49.354Z,3.70
2023-04-11T04:30:54.462Z,4.03
2023-04-11T04:35:59.908Z,3.57
2023-04-11T04:41:06.150Z,4.03
2023-04-11T04:46:09.952Z,3.90
2023-04-11T04:51:13.080Z,4.47
2023-04-11T04:56:17.681Z,4.00
2023-04-11T05:01:21.332Z,3.80
2023-04-11T05:06:24.431Z,3.40
2023-04-11T05:11:30.100Z,4.03
2023-04-11T05:16:33.363Z,4.53
2023-04-11T05:21:37.690Z,3.60
2023-04-11T05:26:42.441Z,5.13
2023-04-11T05:31:45.532Z,2.87
2023-04-11T05:36:48.648Z,2.60
2023-04-11T05:41:53.442Z,2.80
2023-04-11T05:46:56.520Z,2.53
2023-04-11T05:51:59.666Z,2.80
2023-04-11T05:57:04.518Z,3.00
2023-04-11T06:02:07.845Z,2.93
2023-04-11T06:07:11.179Z,3.00
2023-04-11T06:12:15.751Z,3.87
2023-04-11T06:17:18.856Z,2.93
2023-04-11T06:22:26.551Z,3.10
2023-04-11T06:27:32.099Z,3.27
2023-04-11T06:32:35.497Z,2.90
2023-04-11T06:37:38.681Z,3.20
2023-04-11T06:42:43.599Z,2.73
2023-04-11T06:47:46.679Z,2.80
2023-04-11T06:52:49.764Z,2.27
2023-04-11T06:57:54.224Z,3.30
2023-04-11T07:02:57.525Z,2.60
2023-04-11T07:08:01.110Z,3.33
2023-04-11T07:13:05.590Z,2.60
2023-04-11T07:18:08.834Z,2.43
2023-04-11T07:23:12.139Z,1.57
2023-04-11T07:28:16.721Z,1.97
2023-04-11T07:33:19.814Z,1.40
2023-04-11T07:38:29.491Z,1.50
2023-04-11T07:43:34.285Z,0.97
2023-04-11T07:48:37.360Z,0.73
2023-04-11T07:53:40.409Z,0.53
2023-04-11T07:58:45.224Z,1.47
2023-04-11T08:03:48.599Z,0.77
2023-04-11T08:08:52.453Z,0.77
2023-04-11T08:13:57.250Z,0.73
2023-04-11T08:19:00.466Z,0.50
2023-04-11T08:24:03.550Z,0.50
2023-04-11T08:29:11.434Z,0.60
2023-04-11T08:34:14.674Z,0.40
2023-04-11T08:39:17.873Z,0.53
2023-04-11T08:44:22.435Z,0.60
2023-04-11T08:49:25.629Z,0.50
2023-04-11T08:54:28.770Z,1.00
2023-04-11T08:59:34.821Z,0.70
2023-04-11T09:04:41.724Z,0.60
2023-04-11T09:09:44.901Z,0.73
2023-04-11T09:14:49.347Z,0.60
2023-04-11T09:19:52.617Z,0.80
2023-04-11T09:25:03.606Z,0.70
2023-04-11T09:30:22.534Z,0.70
2023-04-11T09:35:28.668Z,0.80
2023-04-11T09:40:32.077Z,0.90
2023-04-11T09:45:47.650Z,1.33
2023-04-11T09:50:58.877Z,2.37
2023-04-11T09:56:02.791Z,1.50
2023-04-11T10:01:09.613Z,2.93
2023-04-11T10:06:20.839Z,1.70
2023-04-11T10:11:24.759Z,1.63
2023-04-11T10:16:32.447Z,2.83
2023-04-11T10:21:42.766Z,1.57
2023-04-11T10:26:50.858Z,2.03
2023-04-11T10:32:13.362Z,2.57
2023-04-11T10:37:16.545Z,2.30
2023-04-11T10:42:29.201Z,1.80
2023-04-11T10:47:33.675Z,2.10
2023-04-11T10:52:39.027Z,1.90
2023-04-11T10:58:07.255Z,1.90
2023-04-11T11:03:16.988Z,1.50
2023-04-11T11:08:30.547Z,1.53
2023-04-11T11:13:40.942Z,2.07
2023-04-11T11:18:48.796Z,2.53
2023-04-11T11:23:59.301Z,2.07
2023-04-11T11:29:03.563Z,2.67
2023-04-11T11:34:22.842Z,3.27
2023-04-11T11:39:27.672Z,3.13
2023-04-11T11:44:32.243Z,1.60
2023-04-11T11:49:47.237Z,2.73
2023-04-11T11:54:50.384Z,3.70
2023-04-11T11:59:56.735Z,1.50
2023-04-11T12:05:04.221Z,1.30
2023-04-11T12:10:09.435Z,3.67
2023-04-11T12:15:14.146Z,2.23
2023-04-11T12:20:23.323Z,2.80
2023-04-11T12:25:26.700Z,3.03
2023-04-11T12:30:30.217Z,1.07
2023-04-11T12:35:35.007Z,2.17
2023-04-11T12:40:38.086Z,3.20
2023-04-11T12:45:41.286Z,2.00
2023-04-11T12:50:45.745Z,2.83
2023-04-11T12:55:48.967Z,1.40
2023-04-11T13:00:52.213Z,10.67
2023-04-11T13:05:56.718Z,3.57
2023-04-11T13:10:59.823Z,2.80
2023-04-11T13:16:02.984Z,2.00
2023-04-11T13:21:08.158Z,2.67
2023-04-11T13:26:11.233Z,2.17
2023-04-11T13:31:14.619Z,1.50
2023-04-11T13:36:19.243Z,1.40
2023-04-11T13:41:22.762Z,1.87
2023-04-11T13:46:26.117Z,3.53
2023-04-11T13:51:31.719Z,1.00
2023-04-11T13:56:35.874Z,2.10
2023-04-11T14:01:39.632Z,2.10
2023-04-11T14:06:44.338Z,1.23
2023-04-11T14:11:47.426Z,1.33
2023-04-11T14:16:50.663Z,1.00
2023-04-11T14:21:55.145Z,2.33
2023-04-11T14:26:58.240Z,0.80
2023-04-11T14:32:02.068Z,3.17
2023-04-11T14:37:06.675Z,2.80
2023-04-11T14:42:10.149Z,2.13
2023-04-11T14:47:13.227Z,2.03
2023-04-11T14:52:17.660Z,1.70
2023-04-11T14:57:23.210Z,1.80
2023-04-11T15:02:27.395Z,1.90
2023-04-11T15:07:33.019Z,1.40
2023-04-11T15:12:36.117Z,3.30
2023-04-11T15:17:42.008Z,1.37
2023-04-11T15:22:47.318Z,1.63
2023-04-11T15:27:51.970Z,2.77
2023-04-11T15:32:55.121Z,1.47
2023-04-11T15:38:00.512Z,2.70
2023-04-11T15:43:03.794Z,1.60
2023-04-11T15:48:07.248Z,1.30
2023-04-11T15:53:12.741Z,3.07
2023-04-11T15:58:16.292Z,2.67
2023-04-11T16:03:19.498Z,2.73
2023-04-11T16:08:24.142Z,1.73
2023-04-11T16:13:27.210Z,2.53
2023-04-11T16:18:30.361Z,2.30
2023-04-11T16:23:34.837Z,1.70
2023-04-11T16:28:37.936Z,1.80
2023-04-11T16:33:41.002Z,1.90
2023-04-11T16:38:45.594Z,2.30
2023-04-11T16:43:48.712Z,2.40
2023-04-11T16:48:51.807Z,2.23
2023-04-11T16:53:56.994Z,1.33
2023-04-11T16:59:00.385Z,2.57
2023-04-11T17:04:03.605Z,0.97
2023-04-11T17:09:09.475Z,2.80
2023-04-11T17:14:12.615Z,2.73
2023-04-11T17:19:15.745Z,1.37
2023-04-11T17:24:20.204Z,1.40
2023-04-11T17:29:23.273Z,1.60
2023-04-11T17:34:26.526Z,1.23
2023-04-11T17:39:30.991Z,2.63
2023-04-11T17:44:34.154Z,1.10
2023-04-11T17:49:37.219Z,2.73
2023-04-11T17:54:41.647Z,1.70
2023-04-11T17:59:45.879Z,2.20
2023-04-11T18:04:49.284Z,2.60
2023-04-11T18:09:54.044Z,3.90
2023-04-11T18:14:57.275Z,3.30
2023-04-11T18:20:00.499Z,6.53
2023-04-11T18:25:05.812Z,6.03
2023-04-11T18:30:12.196Z,6.87
2023-04-11T18:35:15.714Z,6.20
2023-04-11T18:40:20.164Z,8.07
2023-04-11T18:45:23.317Z,5.23
2023-04-11T18:50:27.712Z,5.23
2023-04-11T18:55:32.204Z,4.63
2023-04-11T19:00:35.538Z,5.13
2023-04-11T19:05:39.028Z,5.57
2023-04-11T19:10:43.552Z,6.00
2023-04-11T19:15:47.071Z,5.23
2023-04-11T19:20:52.128Z,6.00
2023-04-11T19:25:56.695Z,5.37
2023-04-11T19:30:59.862Z,4.77
2023-04-11T19:36:03.096Z,3.00
2023-04-11T19:41:15.734Z,2.93
2023-04-11T19:46:19.100Z,4.07
2023-04-11T19:51:22.827Z,5.50
2023-04-11T19:56:27.349Z,4.63
2023-04-11T20:01:32.343Z,3.83
2023-04-11T20:06:35.778Z,3.30
2023-04-11T20:11:40.405Z,5.03
2023-04-11T20:16:43.549Z,3.80
2023-04-11T20:21:46.734Z,3.17
2023-04-11T20:26:51.251Z,3.13
2023-04-11T20:31:54.344Z,3.33
2023-04-11T20:37:00.775Z,3.67
2023-04-11T20:42:05.486Z,3.17
2023-04-11T20:47:09.177Z,6.00
2023-04-11T20:52:12.470Z,5.53
2023-04-11T20:57:16.918Z,3.83
2023-04-11T21:02:20.187Z,4.20
2023-04-11T21:07:23.843Z,5.13
2023-04-11T21:12:28.373Z,5.90
2023-04-11T21:17:34.642Z,5.03
2023-04-11T21:22:37.802Z,4.60
2023-04-11T21:27:42.338Z,5.37
2023-04-11T21:32:45.548Z,4.97
2023-04-11T21:37:49.302Z,6.57
2023-04-11T21:42:55.518Z,4.87
2023-04-11T21:47:58.666Z,6.50
2023-04-11T21:53:01.765Z,4.83
2023-04-11T21:58:08.189Z,4.53
2023-04-11T22:03:19.879Z,4.83
2023-04-11T22:08:23.374Z,6.43
2023-04-11T22:13:27.813Z,3.97
2023-04-11T22:18:30.887Z,3.87
2023-04-11T22:23:34.401Z,3.90
2023-04-11T22:28:38.867Z,5.53
2023-04-11T22:33:41.978Z,4.30
2023-04-11T22:38:45.605Z,3.57
2023-04-11T22:43:50.046Z,3.40
2023-04-11T22:48:53.926Z,3.77
2023-04-11T22:53:57.214Z,3.10
2023-04-11T22:59:01.816Z,3.47
2023-04-11T23:04:04.940Z,3.20
2023-04-11T23:09:08.072Z,2.83
2023-04-11T23:14:14.461Z,2.70
2023-04-11T23:19:18.874Z,2.83
2023-04-11T23:24:22.088Z,6.43
2023-04-11T23:29:27.588Z,3.77
2023-04-11T23:34:30.701Z,3.10
2023-04-11T23:39:33.819Z,3.13
2023-04-11T23:44:38.252Z,3.80
2023-04-11T23:49:41.429Z,2.50
2023-04-11T23:54:45.807Z,2.17
2023-04-11T23:59:50.292Z,3.97
